createdAt,value
2023-02-26T00:01:19.618Z,-0.66
2023-02-26T00:04:07.049Z,-0.70
2023-02-26T00:06:54.031Z,-0.72
2023-02-26T00:09:43.126Z,-0.81
2023-02-26T00:12:29.848Z,-0.79
2023-02-26T00:15:15.748Z,-0.86
2023-02-26T00:18:09.787Z,-0.88
2023-02-26T00:20:55.350Z,-1.07
2023-02-26T00:23:40.658Z,-1.10
2023-02-26T00:26:27.336Z,-1.25
2023-02-26T00:29:13.378Z,-1.33
2023-02-26T00:31:58.961Z,-1.40
2023-02-26T00:34:46.447Z,-1.43
2023-02-26T00:37:34.963Z,-1.43
2023-02-26T00:40:23.439Z,-1.41
2023-02-26T00:43:22.428Z,-1.38
2023-02-26T00:46:27.984Z,-1.51
2023-02-26T00:49:45.520Z,-1.59
2023-02-26T00:52:47.798Z,-1.49
2023-02-26T00:55:33.242Z,-1.50
2023-02-26T00:58:18.219Z,-1.61
2023-02-26T01:01:03.128Z,-1.66
2023-02-26T01:03:48.662Z,-1.72
2023-02-26T01:06:38.528Z,-1.71
2023-02-26T01:09:32.727Z,-1.77
2023-02-26T01:12:17.911Z,-1.64
2023-02-26T01:15:04.776Z,-1.68
2023-02-26T01:18:01.881Z,-1.62
2023-02-26T01:20:51.934Z,-1.68
2023-02-26T01:23:41.611Z,-1.69
2023-02-26T01:26:28.679Z,-1.61
2023-02-26T01:29:13.942Z,-1.37
2023-02-26T01:32:11.326Z,-1.27
2023-02-26T01:34:56.536Z,-1.23
2023-02-26T01:37:57.289Z,-1.15
2023-02-26T01:41:05.974Z,-1.10
2023-02-26T01:44:03.753Z,-1.04
2023-02-26T01:47:13.235Z,-1.01
2023-02-26T01:50:05.971Z,-0.91
2023-02-26T01:52:51.425Z,-0.94
2023-02-26T01:55:37.249Z,-0.89
2023-02-26T01:58:25.091Z,-0.76
2023-02-26T02:01:10.549Z,-1.01
2023-02-26T02:03:55.720Z,-0.93
2023-02-26T02:06:40.630Z,-0.89
2023-02-26T02:09:26.855Z,-0.88
2023-02-26T02:12:34.258Z,-0.93
2023-02-26T02:15:38.575Z,-0.87
2023-02-26T02:18:56.498Z,-0.93
2023-02-26T02:21:48.949Z,-1.08
2023-02-26T02:25:09.096Z,-1.02
2023-02-26T02:28:19.127Z,-1.16
2023-02-26T02:31:10.375Z,-1.34
2023-02-26T02:34:13.932Z,-1.33
2023-02-26T02:37:14.676Z,-1.27
2023-02-26T02:40:12.089Z,-1.31
2023-02-26T02:43:18.252Z,-1.34
2023-02-26T02:46:11.733Z,-1.28
2023-02-26T02:49:12.053Z,-1.49
2023-02-26T02:52:05.555Z,-1.48
2023-02-26T02:54:57.430Z,-1.55
2023-02-26T02:57:57.895Z,-1.63
2023-02-26T03:00:48.810Z,-1.56
2023-02-26T03:03:47.192Z,-1.48
2023-02-26T03:06:33.464Z,-1.53
2023-02-26T03:09:18.928Z,-1.54
2023-02-26T03:12:04.514Z,-1.72
2023-02-26T03:14:49.781Z,-1.70
2023-02-26T03:17:59.933Z,-1.66
2023-02-26T03:21:04.417Z,-1.68
2023-02-26T03:24:06.648Z,-1.80
2023-02-26T03:27:00.263Z,-1.76
2023-02-26T03:30:04.860Z,-1.72
2023-02-26T03:33:22.023Z,-1.72
2023-02-26T03:36:14.515Z,-1.67
2023-02-26T03:39:20.986Z,-1.65
2023-02-26T03:42:29.640Z,-1.75
2023-02-26T03:45:18.073Z,-1.66
2023-02-26T03:48:07.107Z,-1.70
2023-02-26T03:50:55.102Z,-1.73
2023-02-26T03:53:52.353Z,-1.63
2023-02-26T03:56:44.643Z,-1.69
2023-02-26T03:59:30.507Z,-1.73
2023-02-26T04:02:28.424Z,-1.70
2023-02-26T04:05:18.527Z,-1.79
2023-02-26T04:08:03.723Z,-1.78
2023-02-26T04:10:58.850Z,-1.78
2023-02-26T04:13:44.686Z,-1.75
2023-02-26T04:16:29.825Z,-1.77
2023-02-26T04:19:15.011Z,-1.64
2023-02-26T04:22:00.312Z,-1.62
2023-02-26T04:24:45.629Z,-1.83
2023-02-26T04:27:31.219Z,-1.79
2023-02-26T04:30:16.953Z,-1.81
2023-02-26T04:33:01.961Z,-1.91
2023-02-26T04:35:47.162Z,-1.86
2023-02-26T04:38:32.720Z,-1.79
2023-02-26T04:41:18.258Z,-1.90
2023-02-26T04:44:04.107Z,-1.96
2023-02-26T04:46:49.775Z,-1.88
2023-02-26T04:49:35.108Z,-2.03
2023-02-26T04:52:19.975Z,-2.06
2023-02-26T04:55:06.170Z,-2.02
2023-02-26T04:57:51.464Z,-2.06
2023-02-26T05:00:36.537Z,-2.12
2023-02-26T05:03:21.665Z,-2.12
2023-02-26T05:06:07.210Z,-2.05
2023-02-26T05:08:52.637Z,-2.05
2023-02-26T05:11:37.909Z,-2.03
2023-02-26T05:14:22.818Z,-2.13
2023-02-26T05:17:07.650Z,-2.17
2023-02-26T05:19:52.732Z,-2.20
2023-02-26T05:22:38.767Z,-2.16
2023-02-26T05:25:24.123Z,-2.06
2023-02-26T05:28:09.521Z,-2.10
2023-02-26T05:30:56.969Z,-2.09
2023-02-26T05:33:42.587Z,-2.07
2023-02-26T05:36:27.813Z,-2.16
2023-02-26T05:39:12.826Z,-2.12
2023-02-26T05:41:58.328Z,-2.16
2023-02-26T05:44:43.715Z,-2.16
2023-02-26T05:47:28.978Z,-2.12
2023-02-26T05:50:14.525Z,-2.20
2023-02-26T05:52:59.903Z,-2.22
2023-02-26T05:55:45.476Z,-2.22
2023-02-26T05:58:30.649Z,-2.28
2023-02-26T06:01:15.796Z,-2.27
2023-02-26T06:04:00.952Z,-2.27
2023-02-26T06:06:45.970Z,-2.06
2023-02-26T06:09:30.888Z,-2.15
2023-02-26T06:12:16.054Z,-2.14
2023-02-26T06:15:01.034Z,-2.17
2023-02-26T06:17:46.322Z,-2.18
2023-02-26T06:20:31.866Z,-2.17
2023-02-26T06:23:16.680Z,-2.20
2023-02-26T06:26:02.218Z,-2.04
2023-02-26T06:28:47.031Z,-2.01
2023-02-26T06:31:32.541Z,-2.15
2023-02-26T06:34:18.226Z,-2.00
2023-02-26T06:37:03.315Z,-1.98
2023-02-26T06:39:48.714Z,-1.98
2023-02-26T06:42:33.990Z,-2.04
2023-02-26T06:45:18.973Z,-2.00
2023-02-26T06:48:04.470Z,-1.98
2023-02-26T06:50:49.240Z,-2.12
2023-02-26T06:53:34.778Z,-2.14
2023-02-26T06:56:19.643Z,-2.05
2023-02-26T06:59:05.136Z,-2.02
2023-02-26T07:01:50.569Z,-1.76
2023-02-26T07:04:35.749Z,-1.76
2023-02-26T07:07:21.183Z,-1.79
2023-02-26T07:10:06.983Z,-1.54
2023-02-26T07:12:51.909Z,-1.30
2023-02-26T07:15:36.629Z,-1.32
2023-02-26T07:18:21.606Z,-1.28
2023-02-26T07:21:06.868Z,-1.05
2023-02-26T07:23:51.780Z,-1.49
2023-02-26T07:26:37.275Z,-1.52
2023-02-26T07:29:22.663Z,-1.32
2023-02-26T07:32:07.615Z,-1.29
2023-02-26T07:34:52.873Z,-1.24
2023-02-26T07:37:38.190Z,-1.18
2023-02-26T07:40:23.660Z,-1.29
2023-02-26T07:43:08.895Z,-1.13
2023-02-26T07:45:53.743Z,-1.06
2023-02-26T07:48:38.660Z,-1.20
2023-02-26T07:51:24.271Z,-1.22
2023-02-26T07:54:09.549Z,-1.18
2023-02-26T07:56:54.723Z,-1.20
2023-02-26T07:59:40.143Z,-1.06
2023-02-26T08:02:25.136Z,-0.99
2023-02-26T08:05:10.299Z,-0.96
2023-02-26T08:07:55.480Z,-0.93
2023-02-26T08:10:42.034Z,-0.88
2023-02-26T08:13:27.968Z,-0.81
2023-02-26T08:16:13.116Z,-0.71
2023-02-26T08:18:59.888Z,-0.59
2023-02-26T08:21:44.919Z,-0.41
2023-02-26T08:24:29.968Z,-0.40
2023-02-26T08:27:14.857Z,-0.35
2023-02-26T08:30:01.665Z,-0.30
2023-02-26T08:32:47.163Z,-0.40
2023-02-26T08:35:32.692Z,-0.41
2023-02-26T08:38:18.014Z,-0.22
2023-02-26T08:41:03.294Z,-0.01
2023-02-26T08:43:48.581Z,0.18
2023-02-26T08:46:34.587Z,0.39
2023-02-26T08:49:19.665Z,0.53
2023-02-26T08:52:04.956Z,0.62
2023-02-26T08:54:50.354Z,0.73
2023-02-26T08:57:35.767Z,0.99
2023-02-26T09:00:21.363Z,0.87
2023-02-26T09:03:06.526Z,0.73
2023-02-26T09:05:51.862Z,0.91
2023-02-26T09:08:37.354Z,1.00
2023-02-26T09:11:22.681Z,0.97
2023-02-26T09:14:08.067Z,1.44
2023-02-26T09:16:53.094Z,1.89
2023-02-26T09:19:38.303Z,2.15
2023-02-26T09:22:23.109Z,2.26
2023-02-26T09:25:08.213Z,1.88
2023-02-26T09:27:53.346Z,1.93
2023-02-26T09:30:38.192Z,2.19
2023-02-26T09:33:23.805Z,2.96
2023-02-26T09:36:09.702Z,3.46
2023-02-26T09:38:55.017Z,2.96
2023-02-26T09:41:50.813Z,2.98
2023-02-26T09:44:38.397Z,2.64
2023-02-26T09:47:28.825Z,2.25
2023-02-26T09:50:47.040Z,2.42
2023-02-26T09:53:37.572Z,2.29
2023-02-26T09:56:26.769Z,1.70
2023-02-26T09:59:12.566Z,1.96
2023-02-26T10:02:07.092Z,1.87
2023-02-26T10:05:23.468Z,2.08
2023-02-26T10:08:16.153Z,2.19
2023-02-26T10:11:01.590Z,2.21
2023-02-26T10:13:57.704Z,2.31
2023-02-26T10:16:49.338Z,2.69
2023-02-26T10:19:38.994Z,2.60
2023-02-26T10:22:32.265Z,2.63
2023-02-26T10:25:25.617Z,2.43
2023-02-26T10:28:39.204Z,2.40
2023-02-26T10:31:59.022Z,2.78
2023-02-26T10:35:15.508Z,2.91
2023-02-26T10:38:11.573Z,2.51
2023-02-26T10:41:08.982Z,2.41
2023-02-26T10:44:16.259Z,2.30
2023-02-26T10:47:27.975Z,2.62
2023-02-26T10:50:17.284Z,3.33
2023-02-26T10:53:03.952Z,3.20
2023-02-26T10:55:59.370Z,4.09
2023-02-26T10:58:46.022Z,4.12
2023-02-26T11:01:32.099Z,3.23
2023-02-26T11:04:21.527Z,3.55
2023-02-26T11:07:07.096Z,3.45
2023-02-26T11:09:53.630Z,4.00
2023-02-26T11:12:38.971Z,3.67
2023-02-26T11:15:26.945Z,4.04
2023-02-26T11:18:20.144Z,3.38
2023-02-26T11:21:06.498Z,3.43
2023-02-26T11:24:02.915Z,3.39
2023-02-26T11:26:53.759Z,3.12
2023-02-26T11:29:48.020Z,3.36
2023-02-26T11:32:35.631Z,3.68
2023-02-26T11:35:25.066Z,4.18
2023-02-26T11:38:18.378Z,4.07
2023-02-26T11:41:05.559Z,4.58
2023-02-26T11:44:01.164Z,4.56
2023-02-26T11:46:55.891Z,4.21
2023-02-26T11:49:49.987Z,4.57
2023-02-26T11:52:41.042Z,4.76
2023-02-26T11:55:34.117Z,4.22
2023-02-26T11:58:24.090Z,3.85
2023-02-26T12:01:12.307Z,4.31
2023-02-26T12:04:00.785Z,4.75
2023-02-26T12:06:56.371Z,4.25
2023-02-26T12:09:42.847Z,3.93
2023-02-26T12:12:47.824Z,3.89
2023-02-26T12:15:59.274Z,4.33
2023-02-26T12:19:29.093Z,4.89
2023-02-26T12:22:49.499Z,5.04
2023-02-26T12:25:49.789Z,4.69
2023-02-26T12:28:44.026Z,4.86
2023-02-26T12:31:44.894Z,4.21
2023-02-26T12:35:10.069Z,4.47
2023-02-26T12:38:19.540Z,4.91
2023-02-26T12:41:30.088Z,5.27
2023-02-26T12:44:18.028Z,4.86
2023-02-26T12:47:27.734Z,4.60
2023-02-26T12:50:44.787Z,4.59
2023-02-26T12:53:38.901Z,4.49
2023-02-26T12:56:36.801Z,4.65
2023-02-26T12:59:25.001Z,5.35
2023-02-26T13:02:31.959Z,5.51
2023-02-26T13:05:33.715Z,5.69
2023-02-26T13:08:34.403Z,5.86
2023-02-26T13:11:24.002Z,5.84
2023-02-26T13:14:30.577Z,5.57
2023-02-26T13:17:18.696Z,5.23
2023-02-26T13:20:17.936Z,4.73
2023-02-26T13:23:14.776Z,4.08
2023-02-26T13:26:04.855Z,3.96
2023-02-26T13:29:06.253Z,3.86
2023-02-26T13:31:58.824Z,3.65
2023-02-26T13:34:57.563Z,3.49
2023-02-26T13:37:48.861Z,4.55
2023-02-26T13:40:43.581Z,5.79
2023-02-26T13:44:03.962Z,5.96
2023-02-26T13:46:55.632Z,7.08
2023-02-26T13:50:12.592Z,6.23
2023-02-26T13:53:24.158Z,5.68
2023-02-26T13:56:32.243Z,5.32
2023-02-26T13:59:20.324Z,5.44
2023-02-26T14:02:18.837Z,5.93
2023-02-26T14:05:11.582Z,6.60
2023-02-26T14:08:38.256Z,5.44
2023-02-26T14:11:44.571Z,4.54
2023-02-26T14:14:43.209Z,3.77
2023-02-26T14:18:00.834Z,4.97
2023-02-26T14:20:46.555Z,5.46
2023-02-26T14:23:37.080Z,5.72
2023-02-26T14:26:23.919Z,5.96
2023-02-26T14:29:16.677Z,5.18
2023-02-26T14:32:06.575Z,5.51
2023-02-26T14:34:55.148Z,5.43
2023-02-26T14:37:41.071Z,5.92
2023-02-26T14:40:29.464Z,6.68
2023-02-26T14:43:34.664Z,5.73
2023-02-26T14:46:20.271Z,5.74
2023-02-26T14:49:14.392Z,6.25
2023-02-26T14:52:31.723Z,6.25
2023-02-26T14:55:39.408Z,6.21
2023-02-26T14:59:06.238Z,5.98
2023-02-26T15:02:12.964Z,6.40
2023-02-26T15:05:13.606Z,6.15
2023-02-26T15:08:10.658Z,5.80
2023-02-26T15:11:21.210Z,5.73
2023-02-26T15:14:49.175Z,5.13
2023-02-26T15:17:53.009Z,4.99
2023-02-26T15:21:03.421Z,5.61
2023-02-26T15:23:54.560Z,5.29
2023-02-26T15:26:54.384Z,5.09
2023-02-26T15:29:41.317Z,4.99
2023-02-26T15:32:29.951Z,4.77
2023-02-26T15:35:22.364Z,4.37
2023-02-26T15:38:09.164Z,4.47
2023-02-26T15:41:00.106Z,4.44
2023-02-26T15:43:50.854Z,4.60
2023-02-26T15:46:40.021Z,5.07
2023-02-26T15:49:28.893Z,5.03
2023-02-26T15:52:18.301Z,4.54
2023-02-26T15:55:05.895Z,3.96
2023-02-26T15:57:53.233Z,3.74
2023-02-26T16:00:38.337Z,3.66
2023-02-26T16:03:38.154Z,3.38
2023-02-26T16:06:29.704Z,3.32
2023-02-26T16:09:25.218Z,3.61
2023-02-26T16:12:18.321Z,4.31
2023-02-26T16:15:07.664Z,4.92
2023-02-26T16:17:55.403Z,5.29
2023-02-26T16:20:44.122Z,5.02
2023-02-26T16:23:41.163Z,4.27
2023-02-26T16:26:49.155Z,3.89
2023-02-26T16:29:36.226Z,3.72
2023-02-26T16:32:23.842Z,3.56
2023-02-26T16:35:12.541Z,3.64
2023-02-26T16:37:57.351Z,3.70
2023-02-26T16:40:44.718Z,3.58
2023-02-26T16:43:34.378Z,3.35
2023-02-26T16:46:34.901Z,3.14
2023-02-26T16:49:32.064Z,3.04
2023-02-26T16:52:24.225Z,3.07
2023-02-26T16:55:13.298Z,2.85
2023-02-26T16:57:59.985Z,2.86
2023-02-26T17:00:46.843Z,2.85
2023-02-26T17:03:32.237Z,2.91
2023-02-26T17:06:18.217Z,2.77
2023-02-26T17:09:06.143Z,2.81
2023-02-26T17:12:02.591Z,2.70
2023-02-26T17:14:55.583Z,2.80
2023-02-26T17:17:40.414Z,2.97
2023-02-26T17:20:26.407Z,2.77
2023-02-26T17:23:15.383Z,2.84
2023-02-26T17:26:00.689Z,2.86
2023-02-26T17:28:46.162Z,2.89
2023-02-26T17:31:31.112Z,2.94
2023-02-26T17:34:19.148Z,2.88
2023-02-26T17:37:04.399Z,2.87
2023-02-26T17:39:49.494Z,2.84
2023-02-26T17:42:34.741Z,2.78
2023-02-26T17:45:20.923Z,2.77
2023-02-26T17:48:06.920Z,2.80
2023-02-26T17:50:56.931Z,2.76
2023-02-26T17:53:41.959Z,2.69
2023-02-26T17:56:29.394Z,2.71
2023-02-26T17:59:14.883Z,2.75
2023-02-26T18:02:00.621Z,2.69
2023-02-26T18:04:46.217Z,2.85
2023-02-26T18:07:31.344Z,2.76
2023-02-26T18:10:24.782Z,2.75
2023-02-26T18:13:10.780Z,2.65
2023-02-26T18:15:56.757Z,2.75
2023-02-26T18:18:42.120Z,2.57
2023-02-26T18:21:27.642Z,2.71
2023-02-26T18:24:12.669Z,2.51
2023-02-26T18:26:57.679Z,2.50
2023-02-26T18:29:43.562Z,2.45
2023-02-26T18:32:28.890Z,2.32
2023-02-26T18:35:13.991Z,2.29
2023-02-26T18:37:59.054Z,2.25
2023-02-26T18:40:45.553Z,2.14
2023-02-26T18:43:30.734Z,2.15
2023-02-26T18:46:15.580Z,2.21
2023-02-26T18:49:00.929Z,2.08
2023-02-26T18:51:45.925Z,2.15
2023-02-26T18:54:30.918Z,2.00
2023-02-26T18:57:16.089Z,2.04
2023-02-26T19:00:01.482Z,2.03
2023-02-26T19:02:47.493Z,1.95
2023-02-26T19:05:32.611Z,2.00
2023-02-26T19:08:17.590Z,1.88
2023-02-26T19:11:02.933Z,1.71
2023-02-26T19:13:49.870Z,1.70
2023-02-26T19:16:35.087Z,1.73
2023-02-26T19:19:21.239Z,1.76
2023-02-26T19:22:06.413Z,1.60
2023-02-26T19:24:51.657Z,1.52
2023-02-26T19:27:36.831Z,1.46
2023-02-26T19:30:23.144Z,1.59
2023-02-26T19:33:08.295Z,1.71
2023-02-26T19:35:53.291Z,1.72
2023-02-26T19:38:38.305Z,1.60
2023-02-26T19:41:23.285Z,1.67
2023-02-26T19:44:08.537Z,1.69
2023-02-26T19:46:53.767Z,1.60
2023-02-26T19:49:39.145Z,1.70
2023-02-26T19:52:24.144Z,1.64
2023-02-26T19:55:09.637Z,1.60
2023-02-26T19:57:55.066Z,1.61
2023-02-26T20:00:40.354Z,1.50
2023-02-26T20:03:25.409Z,1.51
2023-02-26T20:06:10.384Z,1.37
2023-02-26T20:08:55.882Z,1.24
2023-02-26T20:11:41.393Z,1.10
2023-02-26T20:14:26.810Z,1.23
2023-02-26T20:17:12.471Z,1.17
2023-02-26T20:19:58.335Z,0.91
2023-02-26T20:22:43.373Z,0.85
2023-02-26T20:25:30.833Z,0.72
2023-02-26T20:28:17.642Z,0.84
2023-02-26T20:31:04.619Z,0.76
2023-02-26T20:33:50.635Z,0.68
2023-02-26T20:36:35.305Z,0.85
2023-02-26T20:39:21.168Z,0.80
2023-02-26T20:42:06.798Z,0.55
2023-02-26T20:44:51.976Z,0.40
2023-02-26T20:47:37.554Z,0.23
2023-02-26T20:50:22.734Z,0.12
2023-02-26T20:53:07.987Z,0.07
2023-02-26T20:55:54.723Z,-0.11
2023-02-26T20:58:39.885Z,-0.13
2023-02-26T21:01:24.996Z,-0.28
2023-02-26T21:04:11.138Z,-0.05
2023-02-26T21:06:56.346Z,-0.02
2023-02-26T21:09:41.908Z,-0.07
2023-02-26T21:12:28.268Z,0.02
2023-02-26T21:15:14.090Z,-0.26
2023-02-26T21:17:58.907Z,-0.39
2023-02-26T21:20:44.227Z,-0.46
2023-02-26T21:23:29.562Z,-0.47
2023-02-26T21:26:14.801Z,-0.44
2023-02-26T21:29:00.385Z,-0.45
2023-02-26T21:31:45.805Z,-0.50
2023-02-26T21:34:34.312Z,-0.43
2023-02-26T21:37:19.437Z,-0.49
2023-02-26T21:40:05.706Z,-0.53
2023-02-26T21:42:50.629Z,-0.50
2023-02-26T21:45:36.719Z,-0.58
2023-02-26T21:48:22.990Z,-0.50
2023-02-26T21:51:08.472Z,-0.59
2023-02-26T21:53:53.779Z,-0.50
2023-02-26T21:56:39.253Z,-0.57
2023-02-26T21:59:24.214Z,-0.70
2023-02-26T22:02:11.854Z,-0.63
2023-02-26T22:04:56.762Z,-0.60
2023-02-26T22:07:41.635Z,-0.61
2023-02-26T22:10:26.696Z,-0.52
2023-02-26T22:13:12.252Z,-0.54
2023-02-26T22:15:57.295Z,-0.50
2023-02-26T22:18:43.089Z,-0.49
2023-02-26T22:21:28.440Z,-0.35
2023-02-26T22:24:13.984Z,-0.27
2023-02-26T22:26:59.571Z,-0.21
2023-02-26T22:29:45.024Z,-0.09
2023-02-26T22:32:30.294Z,-0.11
2023-02-26T22:35:15.577Z,-0.14
2023-02-26T22:38:01.044Z,-0.17
2023-02-26T22:40:46.384Z,-0.13
2023-02-26T22:43:31.853Z,-0.10
2023-02-26T22:46:17.416Z,-0.07
2023-02-26T22:49:02.622Z,0.01
2023-02-26T22:51:48.049Z,0.00
2023-02-26T22:54:33.459Z,0.01
2023-02-26T22:57:18.889Z,0.04
2023-02-26T23:00:06.612Z,-0.07
2023-02-26T23:02:52.070Z,-0.05
2023-02-26T23:05:37.368Z,0.00
2023-02-26T23:08:22.362Z,0.09
2023-02-26T23:11:08.799Z,-0.03
2023-02-26T23:13:53.696Z,0.05
2023-02-26T23:16:38.567Z,0.06
2023-02-26T23:19:23.810Z,-0.04
2023-02-26T23:22:08.856Z,-0.05
2023-02-26T23:24:53.835Z,-0.08
2023-02-26T23:27:39.491Z,-0.15
2023-02-26T23:30:25.506Z,-0.16
2023-02-26T23:33:10.879Z,-0.19
2023-02-26T23:35:56.550Z,-0.22
2023-02-26T23:38:41.815Z,-0.35
2023-02-26T23:41:27.212Z,-0.44
2023-02-26T23:44:12.391Z,-0.50
2023-02-26T23:46:57.785Z,-0.57
2023-02-26T23:49:43.221Z,-0.75
2023-02-26T23:52:28.572Z,-0.75
2023-02-26T23:55:13.586Z,-0.66
2023-02-26T23:57:58.858Z,-0.60
